createdAt,value
2019-05-13T00:02:10.333Z,9.71
2019-05-13T00:07:13.795Z,9.85
2019-05-13T00:12:17.937Z,9.97
2019-05-13T00:17:23.551Z,9.96
2019-05-13T00:22:26.443Z,9.96
2019-05-13T00:27:29.907Z,9.83
2019-05-13T00:32:33.721Z,9.74
2019-05-13T00:37:37.230Z,9.88
2019-05-13T00:42:40.628Z,9.76
2019-05-13T00:47:44.052Z,9.79
2019-05-13T00:52:48.308Z,9.83
2019-05-13T00:57:53.952Z,9.86
2019-05-13T01:02:56.818Z,9.93
2019-05-13T01:08:00.219Z,10.04
2019-05-13T01:13:04.607Z,10.10
2019-05-13T01:18:08.361Z,9.95
2019-05-13T01:23:13.883Z,9.64
2019-05-13T01:28:16.864Z,9.47
2019-05-13T01:33:20.265Z,9.33
2019-05-13T01:38:24.242Z,9.16
2019-05-13T01:43:27.666Z,9.12
2019-05-13T01:48:33.148Z,9.10
2019-05-13T01:53:36.177Z,9.08
2019-05-13T01:58:39.569Z,9.13
2019-05-13T02:03:44.292Z,9.20
2019-05-13T02:08:47.735Z,9.33
2019-05-13T02:13:53.762Z,9.38
2019-05-13T02:18:56.479Z,9.45
2019-05-13T02:23:59.873Z,9.51
2019-05-13T02:29:03.806Z,9.50
2019-05-13T02:34:07.248Z,9.47
2019-05-13T02:39:12.887Z,9.37
2019-05-13T02:44:15.734Z,9.33
2019-05-13T02:49:19.133Z,9.38
2019-05-13T02:54:23.038Z,9.36
2019-05-13T02:59:26.450Z,9.29
2019-05-13T03:04:32.603Z,9.19
2019-05-13T03:09:35.183Z,8.98
2019-05-13T03:14:38.587Z,8.85
2019-05-13T03:19:43.237Z,8.80
2019-05-13T03:24:46.988Z,8.75
2019-05-13T03:29:53.233Z,8.70
2019-05-13T03:34:57.050Z,8.81
2019-05-13T03:40:03.294Z,8.96
2019-05-13T03:45:05.816Z,8.99
2019-05-13T03:50:12.849Z,8.95
2019-05-13T03:55:15.136Z,8.84
2019-05-13T04:00:19.484Z,8.76
2019-05-13T04:05:23.706Z,8.75
2019-05-13T04:10:27.211Z,8.78
2019-05-13T04:15:31.970Z,8.70
2019-05-13T04:20:35.682Z,8.57
2019-05-13T04:25:41.323Z,8.46
2019-05-13T04:30:44.333Z,8.36
2019-05-13T04:35:47.731Z,8.36
2019-05-13T04:40:52.839Z,8.24
2019-05-13T04:45:56.531Z,8.15
2019-05-13T04:51:03.050Z,8.07
2019-05-13T04:56:05.169Z,8.16
2019-05-13T05:01:26.543Z,8.24
2019-05-13T05:06:33.384Z,8.33
2019-05-13T05:12:02.328Z,8.49
2019-05-13T05:17:27.926Z,8.60
2019-05-13T05:23:04.560Z,8.71
2019-05-13T05:28:17.062Z,8.64
2019-05-13T05:33:41.791Z,8.57
2019-05-13T05:38:56.701Z,8.52
2019-05-13T05:44:02.504Z,8.64
2019-05-13T05:49:08.560Z,8.74
2019-05-13T05:54:14.605Z,8.87
2019-05-13T05:59:21.832Z,8.91
2019-05-13T06:04:26.208Z,8.90
2019-05-13T06:09:32.046Z,8.96
2019-05-13T06:14:35.940Z,9.02
2019-05-13T06:19:41.678Z,9.10
2019-05-13T06:24:44.573Z,9.16
2019-05-13T06:29:49.273Z,9.16
2019-05-13T06:34:53.138Z,9.27
2019-05-13T06:39:56.591Z,9.39
2019-05-13T06:45:01.925Z,9.47
2019-05-13T06:50:06.827Z,9.70
2019-05-13T06:55:11.634Z,9.97
2019-05-13T07:00:16.671Z,10.34
2019-05-13T07:05:22.481Z,10.60
2019-05-13T07:10:25.168Z,10.65
2019-05-13T07:15:28.560Z,10.69
2019-05-13T07:20:32.381Z,10.82
2019-05-13T07:25:35.824Z,10.96
2019-05-13T07:30:44.288Z,11.16
2019-05-13T07:35:47.693Z,11.29
2019-05-13T07:40:54.116Z,11.56
2019-05-13T07:45:57.505Z,11.75
2019-05-13T07:51:04.204Z,11.68
2019-05-13T07:56:06.006Z,11.83
2019-05-13T08:01:11.978Z,12.09
2019-05-13T08:06:14.543Z,12.03
2019-05-13T08:11:17.929Z,12.14
2019-05-13T08:16:22.299Z,12.23
2019-05-13T08:21:25.855Z,12.31
2019-05-13T08:26:29.253Z,12.41
2019-05-13T08:31:32.645Z,12.75
2019-05-13T08:36:39.288Z,12.72
2019-05-13T08:41:42.322Z,13.09
2019-05-13T08:46:45.853Z,13.38
2019-05-13T08:51:49.240Z,12.92
2019-05-13T08:56:52.873Z,13.15
2019-05-13T09:01:56.475Z,13.24
2019-05-13T09:12:05.418Z,13.48
2019-05-13T09:17:08.802Z,13.89
2019-05-13T09:22:12.631Z,13.18
2019-05-13T09:27:15.995Z,13.19
2019-05-13T09:32:21.521Z,13.87
2019-05-13T09:37:24.552Z,14.45
2019-05-13T09:42:27.945Z,14.08
2019-05-13T09:47:32.245Z,14.04
2019-05-13T09:52:39.449Z,14.04
2019-05-13T09:57:41.587Z,14.06
2019-05-13T10:02:44.985Z,13.73
2019-05-13T10:07:48.382Z,14.14
2019-05-13T10:13:08.037Z,14.63
2019-05-13T10:17:57.117Z,14.52
2019-05-13T10:23:01.701Z,14.91
2019-05-13T10:28:05.408Z,14.82
2019-05-13T10:33:08.983Z,14.27
2019-05-13T10:38:13.385Z,13.68
2019-05-13T10:43:29.497Z,13.68
2019-05-13T10:48:22.236Z,14.37
2019-05-13T10:53:25.594Z,14.37
2019-05-13T10:58:29.052Z,15.08
2019-05-13T11:03:33.129Z,15.64
2019-05-13T11:08:36.921Z,14.79
2019-05-13T11:13:52.228Z,14.63
2019-05-13T11:18:45.661Z,14.49
2019-05-13T11:23:49.585Z,14.02
2019-05-13T11:28:54.161Z,14.14
2019-05-13T11:33:57.549Z,14.41
2019-05-13T11:39:03.068Z,14.41
2019-05-13T11:44:14.173Z,14.86
2019-05-13T11:49:11.934Z,14.96
2019-05-13T11:54:15.366Z,14.99
2019-05-13T11:59:21.810Z,15.10
2019-05-13T12:04:24.362Z,15.71
2019-05-13T12:09:27.779Z,15.95
2019-05-13T12:14:48.462Z,15.04
2019-05-13T12:19:36.521Z,15.58
2019-05-13T12:24:42.279Z,15.44
2019-05-13T12:29:45.023Z,15.48
2019-05-13T12:34:48.414Z,15.54
2019-05-13T12:39:53.201Z,15.18
2019-05-13T12:45:08.563Z,15.60
2019-05-13T12:50:03.198Z,16.53
2019-05-13T12:55:07.088Z,16.89
2019-05-13T13:00:13.084Z,17.64
2019-05-13T13:05:20.486Z,17.05
2019-05-13T13:10:23.134Z,15.59
2019-05-13T13:15:41.120Z,16.37
2019-05-13T13:20:33.434Z,17.49
2019-05-13T13:25:37.413Z,18.40
2019-05-13T13:30:43.885Z,18.51
2019-05-13T13:35:54.992Z,17.28
2019-05-13T13:40:53.873Z,17.08
2019-05-13T13:51:04.975Z,16.99
2019-05-13T13:56:06.608Z,16.99
2019-05-13T14:01:17.494Z,17.30
2019-05-13T14:06:25.036Z,13.35
2019-05-13T14:07:09.112Z,17.72
2019-05-13T14:11:23.240Z,17.92
2019-05-13T14:16:31.253Z,18.64
2019-05-13T14:21:32.402Z,18.29
2019-05-13T14:26:36.130Z,17.10
2019-05-13T14:31:41.371Z,17.21
2019-05-13T14:36:44.860Z,17.20
2019-05-13T14:41:48.249Z,18.00
2019-05-13T14:46:52.480Z,18.12
2019-05-13T14:51:56.564Z,18.42
2019-05-13T14:57:02.448Z,18.44
2019-05-13T15:02:05.107Z,17.85
2019-05-13T15:07:08.496Z,17.71
2019-05-13T15:12:11.885Z,16.95
2019-05-13T15:17:15.550Z,16.85
2019-05-13T15:22:19.095Z,17.31
2019-05-13T15:27:22.529Z,17.99
2019-05-13T15:32:25.902Z,17.75
2019-05-13T15:37:31.967Z,17.47
2019-05-13T15:42:34.636Z,17.74
2019-05-13T15:47:38.204Z,17.89
2019-05-13T15:52:43.168Z,17.82
2019-05-13T15:57:46.901Z,18.37
2019-05-13T16:02:52.234Z,17.74
2019-05-13T16:07:55.406Z,17.19
2019-05-13T16:12:58.791Z,16.46
2019-05-13T16:18:02.686Z,16.26
2019-05-13T16:23:06.273Z,16.34
2019-05-13T16:28:09.913Z,16.65
2019-05-13T16:33:13.301Z,16.53
2019-05-13T16:38:16.692Z,17.03
2019-05-13T16:43:20.934Z,16.90
2019-05-13T16:48:24.961Z,17.14
2019-05-13T16:53:28.358Z,16.86
2019-05-13T16:58:32.423Z,16.66
2019-05-13T17:03:36.009Z,16.62
2019-05-13T17:08:39.417Z,16.25
2019-05-13T17:13:42.793Z,15.93
2019-05-13T17:18:46.237Z,16.01
2019-05-13T17:23:52.182Z,15.97
2019-05-13T17:28:54.734Z,15.94
2019-05-13T17:33:58.127Z,15.79
2019-05-13T17:39:01.943Z,15.81
2019-05-13T17:44:05.457Z,15.93
2019-05-13T17:49:08.849Z,16.19
2019-05-13T17:54:12.244Z,16.56
2019-05-13T17:59:16.259Z,16.92
2019-05-13T18:04:22.656Z,17.31
2019-05-13T18:09:25.093Z,17.15
2019-05-13T18:14:28.710Z,16.63
2019-05-13T18:19:32.101Z,16.01
2019-05-13T18:24:35.493Z,15.76
2019-05-13T18:29:38.884Z,15.57
2019-05-13T18:34:42.278Z,15.68
2019-05-13T18:39:45.673Z,15.34
2019-05-13T18:44:51.266Z,14.86
2019-05-13T18:49:54.171Z,14.53
2019-05-13T18:54:57.799Z,14.30
2019-05-13T19:00:02.094Z,14.01
2019-05-13T19:05:06.584Z,13.77
2019-05-13T19:10:11.506Z,13.63
2019-05-13T19:15:15.326Z,13.36
2019-05-13T19:20:18.783Z,13.28
2019-05-13T19:25:22.176Z,13.31
2019-05-13T19:30:25.571Z,13.09
2019-05-13T19:35:28.965Z,12.98
2019-05-13T19:40:32.583Z,12.91
2019-05-13T19:45:36.046Z,12.62
2019-05-13T19:50:41.614Z,12.61
2019-05-13T19:55:44.586Z,12.57
2019-05-13T20:00:48.228Z,12.40
2019-05-13T20:05:51.614Z,12.44
2019-05-13T20:10:55.004Z,12.36
2019-05-13T20:15:58.392Z,12.15
2019-05-13T20:21:01.787Z,12.19
2019-05-13T20:26:05.178Z,12.15
2019-05-13T20:31:10.957Z,12.13
2019-05-13T20:36:13.700Z,12.03
2019-05-13T20:41:17.081Z,11.99
2019-05-13T20:46:22.963Z,11.82
2019-05-13T20:51:25.593Z,11.59
2019-05-13T20:56:28.989Z,11.67
2019-05-13T21:01:32.551Z,11.65
2019-05-13T21:06:35.943Z,11.50
2019-05-13T21:11:41.571Z,11.21
2019-05-13T21:16:44.455Z,11.16
2019-05-13T21:21:47.850Z,11.05
2019-05-13T21:26:51.324Z,11.04
2019-05-13T21:31:54.705Z,11.01
2019-05-13T21:36:58.093Z,11.04
2019-05-13T21:42:02.305Z,10.93
2019-05-13T21:47:05.849Z,10.85
2019-05-13T21:52:09.241Z,10.75
2019-05-13T21:57:12.866Z,10.65
2019-05-13T22:02:16.257Z,10.62
2019-05-13T22:07:22.086Z,10.57
2019-05-13T22:12:24.767Z,10.60
2019-05-13T22:17:28.152Z,10.61
2019-05-13T22:22:32.143Z,10.60
2019-05-13T22:27:35.513Z,10.53
2019-05-13T22:32:38.904Z,10.34
2019-05-13T22:37:42.293Z,10.37
2019-05-13T22:42:45.690Z,10.34
2019-05-13T22:47:49.080Z,10.28
2019-05-13T22:52:52.472Z,10.23
2019-05-13T22:57:55.861Z,10.19
2019-05-13T23:03:01.491Z,10.10
2019-05-13T23:08:04.435Z,9.99
2019-05-13T23:13:07.815Z,9.48
2019-05-13T23:18:11.754Z,9.06
2019-05-13T23:23:15.503Z,9.02
2019-05-13T23:28:21.516Z,9.05
2019-05-13T23:33:24.228Z,9.01
2019-05-13T23:38:27.620Z,8.84
2019-05-13T23:43:31.128Z,8.77
2019-05-13T23:48:34.464Z,8.61
2019-05-13T23:53:37.856Z,8.33
2019-05-13T23:58:41.501Z,8.23
